Terminal Aerodrome Forecast
Issued by NWS St Louis, MO

Home | Current Version | Previous Version | Graphics & Text | Print | Product List | Glossary On
Versions: 1 2 3 4 5 6 7 8 9 10 11 12 13 14 15 16 17 18 19 20 21 22 23 24 25 26 27 28 29 30 31
000
FTUS43 KLSX 270400 AAB
TAFSTL
TAF AMD
KSTL 270402Z 2704/2806 VRB04KT P6SM BKN250
     FM270500 04010G25KT P6SM SCT100 BKN250
     FM270600 VRB04KT P6SM BKN250
     FM271800 02006KT P6SM SCT040 BKN250
     FM280000 06005KT P6SM SCT050 BKN120=

USA.gov is the U.S. government's official web portal to all federal, state and local government web resources and services.